createdAt,value
2022-10-13T00:00:50.293Z,79.90
2022-10-13T00:03:18.119Z,79.87
2022-10-13T00:05:47.476Z,80.80
2022-10-13T00:08:17.337Z,81.94
2022-10-13T00:10:44.579Z,81.76
2022-10-13T00:13:12.316Z,82.06
2022-10-13T00:15:44.757Z,81.60
2022-10-13T00:18:12.136Z,81.73
2022-10-13T00:20:48.774Z,81.66
2022-10-13T00:23:16.758Z,81.58
2022-10-13T00:25:48.792Z,80.63
2022-10-13T00:28:18.690Z,80.63
2022-10-13T00:30:46.843Z,81.36
2022-10-13T00:33:14.363Z,81.50
2022-10-13T00:35:46.336Z,81.48
2022-10-13T00:38:13.739Z,81.64
2022-10-13T00:40:55.660Z,81.58
2022-10-13T00:43:46.976Z,81.79
2022-10-13T00:46:14.975Z,80.92
2022-10-13T00:48:43.285Z,80.78
2022-10-13T00:51:12.148Z,81.18
2022-10-13T00:53:40.936Z,81.19
2022-10-13T00:56:11.419Z,81.20
2022-10-13T00:58:40.616Z,81.27
2022-10-13T01:01:08.322Z,81.66
2022-10-13T01:03:36.167Z,82.36
2022-10-13T01:06:05.195Z,81.85
2022-10-13T01:08:33.501Z,82.11
2022-10-13T01:11:09.152Z,81.37
2022-10-13T01:13:46.484Z,81.77
2022-10-13T01:16:22.296Z,81.40
2022-10-13T01:18:52.532Z,82.66
2022-10-13T01:21:31.933Z,82.61
2022-10-13T01:24:02.120Z,82.69
2022-10-13T01:26:40.751Z,82.52
2022-10-13T01:29:16.549Z,82.24
2022-10-13T01:32:18.292Z,82.80
2022-10-13T01:35:12.050Z,83.80
2022-10-13T01:37:47.988Z,84.15
2022-10-13T01:40:39.100Z,84.60
2022-10-13T01:43:14.408Z,84.85
2022-10-13T01:46:07.752Z,85.55
2022-10-13T01:48:38.088Z,85.56
2022-10-13T01:51:09.189Z,85.36
2022-10-13T01:53:36.900Z,84.46
2022-10-13T01:56:03.898Z,84.30
2022-10-13T01:58:34.534Z,84.08
2022-10-13T02:01:20.011Z,84.90
2022-10-13T02:04:24.589Z,84.76
2022-10-13T02:07:03.940Z,84.55
2022-10-13T02:09:43.815Z,84.00
2022-10-13T02:12:19.408Z,84.31
2022-10-13T02:14:49.320Z,84.62
2022-10-13T02:17:17.238Z,84.87
2022-10-13T02:19:45.355Z,85.52
2022-10-13T02:22:15.293Z,85.43
2022-10-13T02:24:42.396Z,85.32
2022-10-13T02:27:09.535Z,84.74
2022-10-13T02:29:53.686Z,84.13
2022-10-13T02:32:21.612Z,83.65
2022-10-13T02:34:49.736Z,83.61
2022-10-13T02:37:17.291Z,83.48
2022-10-13T02:39:44.131Z,83.60
2022-10-13T02:42:11.080Z,83.93
2022-10-13T02:44:38.117Z,83.63
2022-10-13T02:47:05.237Z,83.41
2022-10-13T02:49:32.178Z,83.82
2022-10-13T02:51:59.430Z,84.32
2022-10-13T02:54:26.197Z,84.72
2022-10-13T02:56:52.997Z,84.50
2022-10-13T02:59:20.277Z,84.21
2022-10-13T03:01:47.132Z,84.44
2022-10-13T03:04:13.912Z,85.47
2022-10-13T03:06:40.793Z,85.60
2022-10-13T03:09:07.700Z,85.41
2022-10-13T03:11:34.740Z,85.34
2022-10-13T03:14:02.903Z,85.86
2022-10-13T03:16:29.719Z,85.78
2022-10-13T03:18:56.680Z,85.74
2022-10-13T03:21:23.901Z,85.61
2022-10-13T03:23:50.873Z,84.92
2022-10-13T03:26:17.770Z,85.28
2022-10-13T03:28:49.445Z,85.10
2022-10-13T03:31:17.565Z,84.46
2022-10-13T03:33:45.482Z,83.94
2022-10-13T03:36:13.436Z,83.72
2022-10-13T03:38:40.492Z,83.78
2022-10-13T03:41:09.937Z,83.93
2022-10-13T03:43:37.101Z,83.17
2022-10-13T03:46:05.987Z,83.14
2022-10-13T03:48:34.053Z,84.27
2022-10-13T03:51:04.874Z,84.76
2022-10-13T03:53:31.673Z,84.58
2022-10-13T03:55:58.610Z,84.16
2022-10-13T03:58:25.994Z,84.00
2022-10-13T04:00:52.859Z,83.90
2022-10-13T04:03:20.062Z,83.98
2022-10-13T04:05:47.679Z,83.67
2022-10-13T04:08:14.835Z,82.95
2022-10-13T04:10:42.406Z,83.36
2022-10-13T04:13:09.483Z,83.88
2022-10-13T04:15:38.229Z,84.19
2022-10-13T04:18:07.296Z,84.49
2022-10-13T04:20:40.771Z,84.85
2022-10-13T04:23:07.914Z,85.39
2022-10-13T04:25:36.355Z,85.71
2022-10-13T04:28:05.578Z,86.63
2022-10-13T04:30:38.001Z,87.15
2022-10-13T04:33:05.795Z,87.71
2022-10-13T04:35:33.329Z,88.20
2022-10-13T04:38:00.380Z,88.64
2022-10-13T04:40:27.400Z,89.09
2022-10-13T04:42:54.598Z,88.81
2022-10-13T04:45:21.697Z,89.04
2022-10-13T04:47:49.016Z,89.17
2022-10-13T04:50:16.056Z,89.14
2022-10-13T04:52:42.917Z,90.09
2022-10-13T04:55:10.012Z,89.81
2022-10-13T04:57:37.233Z,89.90
2022-10-13T05:00:05.437Z,90.31
2022-10-13T05:02:32.275Z,90.76
2022-10-13T05:04:59.192Z,91.04
2022-10-13T05:07:25.947Z,91.45
2022-10-13T05:09:53.055Z,91.42
2022-10-13T05:12:20.371Z,91.41
2022-10-13T05:14:47.592Z,91.74
2022-10-13T05:17:14.596Z,92.52
2022-10-13T05:19:41.677Z,93.45
2022-10-13T05:22:08.373Z,93.58
2022-10-13T05:24:35.469Z,94.16
2022-10-13T05:27:09.121Z,94.37
2022-10-13T05:29:37.290Z,94.14
2022-10-13T05:32:04.457Z,93.57
2022-10-13T05:34:31.875Z,93.43
2022-10-13T05:36:59.678Z,93.49
2022-10-13T05:39:26.575Z,93.79
2022-10-13T05:41:53.518Z,93.71
2022-10-13T05:44:21.215Z,93.82
2022-10-13T05:46:48.007Z,93.17
2022-10-13T05:49:14.937Z,92.56
2022-10-13T05:51:45.379Z,91.97
2022-10-13T05:54:21.518Z,91.32
2022-10-13T05:56:55.584Z,91.62
2022-10-13T05:59:27.156Z,91.12
2022-10-13T06:01:55.134Z,91.40
2022-10-13T06:04:32.137Z,91.50
2022-10-13T06:06:59.117Z,91.13
2022-10-13T06:09:32.580Z,90.91
2022-10-13T06:11:59.621Z,90.53
2022-10-13T06:14:26.445Z,90.60
2022-10-13T06:16:53.259Z,90.91
2022-10-13T06:19:20.357Z,90.13
2022-10-13T06:21:47.488Z,89.12
2022-10-13T06:24:14.290Z,89.61
2022-10-13T06:26:41.395Z,89.14
2022-10-13T06:29:08.269Z,89.12
2022-10-13T06:31:35.353Z,88.35
2022-10-13T06:34:02.511Z,87.76
2022-10-13T06:36:29.311Z,88.54
2022-10-13T06:38:56.399Z,88.26
2022-10-13T06:41:23.376Z,88.28
2022-10-13T06:43:50.296Z,89.39
2022-10-13T06:46:17.442Z,88.53
2022-10-13T06:48:44.744Z,88.80
2022-10-13T06:51:12.518Z,87.75
2022-10-13T06:53:39.473Z,87.68
2022-10-13T06:56:07.681Z,87.38
2022-10-13T06:58:35.857Z,86.46
2022-10-13T07:01:03.157Z,85.42
2022-10-13T07:03:30.149Z,84.02
2022-10-13T07:06:04.958Z,82.55
2022-10-13T07:08:34.847Z,81.81
2022-10-13T07:11:14.546Z,80.86
2022-10-13T07:13:46.193Z,81.01
2022-10-13T07:16:14.912Z,80.54
2022-10-13T07:18:41.977Z,79.91
2022-10-13T07:21:09.777Z,80.33
2022-10-13T07:23:36.756Z,80.35
2022-10-13T07:26:11.255Z,78.62
2022-10-13T07:28:39.112Z,76.78
2022-10-13T07:31:11.372Z,76.81
2022-10-13T07:33:38.954Z,73.66
2022-10-13T07:36:06.275Z,72.34
2022-10-13T07:38:33.246Z,70.95
2022-10-13T07:41:05.238Z,72.01
2022-10-13T07:43:32.286Z,71.88
2022-10-13T07:45:59.914Z,71.35
2022-10-13T07:48:27.496Z,70.04
2022-10-13T07:50:54.490Z,67.85
2022-10-13T07:53:21.503Z,66.95
2022-10-13T07:55:48.978Z,64.68
2022-10-13T07:58:16.044Z,64.45
2022-10-13T08:00:42.969Z,65.15
2022-10-13T08:03:10.322Z,65.00
2022-10-13T08:05:37.885Z,63.04
2022-10-13T08:08:04.834Z,63.81
2022-10-13T08:10:31.965Z,62.12
2022-10-13T08:12:58.852Z,61.71
2022-10-13T08:15:26.753Z,62.66
2022-10-13T08:17:53.871Z,62.72
2022-10-13T08:20:20.798Z,61.50
2022-10-13T08:22:47.655Z,60.60
2022-10-13T08:25:14.589Z,58.76
2022-10-13T08:27:51.132Z,59.22
2022-10-13T08:30:19.887Z,58.74
2022-10-13T08:32:46.954Z,57.90
2022-10-13T08:35:13.828Z,61.04
2022-10-13T08:37:41.012Z,61.20
2022-10-13T08:40:12.098Z,59.03
2022-10-13T08:42:44.322Z,57.80
2022-10-13T08:45:40.488Z,59.40
2022-10-13T08:48:22.021Z,55.77
2022-10-13T08:50:57.805Z,54.57
2022-10-13T08:53:43.833Z,54.48
2022-10-13T08:56:30.759Z,54.63
2022-10-13T08:58:57.914Z,53.44
2022-10-13T09:01:33.709Z,53.39
2022-10-13T09:04:32.840Z,52.28
2022-10-13T09:07:07.317Z,50.82
2022-10-13T09:09:34.435Z,50.59
2022-10-13T09:12:02.073Z,50.56
2022-10-13T09:14:32.428Z,50.58
2022-10-13T09:17:23.390Z,51.30
2022-10-13T09:20:04.515Z,50.44
2022-10-13T09:22:34.716Z,49.95
2022-10-13T09:25:07.098Z,49.83
2022-10-13T09:27:53.934Z,49.36
2022-10-13T09:30:38.658Z,50.65
2022-10-13T09:33:08.686Z,48.76
2022-10-13T09:35:37.641Z,48.72
2022-10-13T09:38:21.079Z,49.86
2022-10-13T09:41:02.573Z,51.48
2022-10-13T09:43:35.399Z,49.35
2022-10-13T09:46:11.536Z,49.85
2022-10-13T09:48:40.713Z,48.66
2022-10-13T09:51:27.491Z,47.46
2022-10-13T09:53:54.421Z,46.93
2022-10-13T09:56:37.197Z,47.51
2022-10-13T09:59:25.112Z,45.50
2022-10-13T10:01:55.911Z,45.98
2022-10-13T10:04:26.263Z,43.75
2022-10-13T10:06:53.109Z,42.71
2022-10-13T10:09:22.631Z,42.16
2022-10-13T10:11:53.174Z,44.09
2022-10-13T10:14:34.706Z,42.95
2022-10-13T10:17:26.199Z,43.53
2022-10-13T10:20:10.812Z,43.55
2022-10-13T10:23:05.259Z,41.29
2022-10-13T10:25:45.902Z,40.72
2022-10-13T10:28:34.005Z,41.04
2022-10-13T10:31:06.752Z,41.01
2022-10-13T10:33:55.117Z,39.73
2022-10-13T10:36:39.536Z,39.52
2022-10-13T10:39:32.632Z,39.87
2022-10-13T10:42:25.468Z,40.30
2022-10-13T10:44:56.485Z,43.53
2022-10-13T10:47:43.526Z,40.42
2022-10-13T10:50:15.453Z,38.86
2022-10-13T10:53:07.308Z,38.95
2022-10-13T10:55:39.984Z,40.17
2022-10-13T10:58:25.123Z,40.05
2022-10-13T11:00:56.056Z,40.86
2022-10-13T11:03:40.618Z,38.93
2022-10-13T11:06:13.274Z,39.71
2022-10-13T11:08:45.816Z,38.97
2022-10-13T11:11:26.789Z,40.61
2022-10-13T11:14:07.466Z,40.11
2022-10-13T11:16:55.954Z,39.83
2022-10-13T11:19:36.001Z,41.45
2022-10-13T11:22:02.790Z,40.33
2022-10-13T11:24:42.130Z,40.93
2022-10-13T11:27:08.989Z,40.92
2022-10-13T11:29:45.056Z,40.66
2022-10-13T11:32:44.459Z,39.46
2022-10-13T11:35:11.113Z,39.15
2022-10-13T11:38:06.114Z,38.76
2022-10-13T11:40:42.150Z,38.70
2022-10-13T11:43:17.973Z,38.31
2022-10-13T11:46:01.915Z,38.33
2022-10-13T11:48:47.275Z,37.34
2022-10-13T11:51:48.871Z,36.72
2022-10-13T11:54:47.536Z,36.10
2022-10-13T11:57:26.127Z,35.21
2022-10-13T11:59:55.676Z,34.50
2022-10-13T12:02:25.925Z,35.41
2022-10-13T12:05:24.097Z,34.18
2022-10-13T12:07:57.202Z,35.54
2022-10-13T12:10:35.876Z,35.82
2022-10-13T12:13:03.873Z,34.89
2022-10-13T12:15:35.435Z,37.26
2022-10-13T12:18:04.058Z,34.58
2022-10-13T12:20:33.131Z,34.21
2022-10-13T12:23:00.316Z,32.33
2022-10-13T12:25:30.331Z,32.96
2022-10-13T12:28:00.568Z,32.51
2022-10-13T12:30:34.819Z,32.84
2022-10-13T12:33:01.997Z,32.98
2022-10-13T12:35:31.689Z,34.20
2022-10-13T12:38:02.378Z,34.71
2022-10-13T12:40:30.155Z,34.98
2022-10-13T12:42:57.479Z,35.81
2022-10-13T12:45:31.783Z,35.82
2022-10-13T12:47:58.893Z,34.67
2022-10-13T12:50:25.673Z,35.21
2022-10-13T12:52:55.438Z,37.15
2022-10-13T12:55:23.458Z,38.89
2022-10-13T12:57:51.694Z,38.35
2022-10-13T13:00:22.492Z,37.50
2022-10-13T13:03:06.269Z,37.00
2022-10-13T13:05:34.390Z,37.03
2022-10-13T13:08:02.273Z,37.32
2022-10-13T13:10:29.514Z,37.20
2022-10-13T13:12:57.079Z,36.62
2022-10-13T13:15:37.998Z,37.14
2022-10-13T13:18:31.283Z,37.79
2022-10-13T13:20:58.654Z,38.08
2022-10-13T13:23:25.443Z,38.37
2022-10-13T13:26:24.808Z,38.21
2022-10-13T13:28:54.199Z,38.12
2022-10-13T13:31:23.716Z,37.51
2022-10-13T13:33:51.234Z,37.45
2022-10-13T13:36:19.382Z,38.24
2022-10-13T13:38:46.613Z,38.42
2022-10-13T13:41:14.127Z,38.61
2022-10-13T13:43:41.645Z,38.06
2022-10-13T13:46:16.237Z,39.41
2022-10-13T13:48:43.150Z,38.97
2022-10-13T13:51:10.971Z,38.35
2022-10-13T13:53:37.988Z,38.60
2022-10-13T13:56:05.528Z,38.95
2022-10-13T13:58:32.469Z,40.74
2022-10-13T14:01:00.365Z,41.17
2022-10-13T14:03:27.317Z,43.14
2022-10-13T14:05:54.088Z,41.36
2022-10-13T14:08:21.221Z,42.24
2022-10-13T14:10:48.128Z,42.58
2022-10-13T14:13:15.038Z,43.46
2022-10-13T14:15:42.119Z,44.10
2022-10-13T14:18:08.962Z,44.00
2022-10-13T14:20:35.777Z,45.21
2022-10-13T14:23:02.995Z,47.35
2022-10-13T14:25:29.759Z,48.38
2022-10-13T14:27:56.496Z,48.27
2022-10-13T14:30:23.925Z,49.03
2022-10-13T14:32:50.716Z,49.58
2022-10-13T14:35:17.736Z,49.38
2022-10-13T14:37:44.926Z,50.04
2022-10-13T14:40:11.800Z,50.10
2022-10-13T14:42:38.592Z,50.25
2022-10-13T14:45:06.441Z,50.72
2022-10-13T14:47:33.314Z,50.92
2022-10-13T14:50:00.243Z,51.28
2022-10-13T14:52:27.114Z,51.24
2022-10-13T14:54:54.012Z,51.89
2022-10-13T14:57:21.097Z,51.27
2022-10-13T14:59:48.402Z,51.30
2022-10-13T15:02:15.658Z,51.71
2022-10-13T15:04:42.470Z,52.03
2022-10-13T15:07:09.550Z,51.65
2022-10-13T15:09:53.208Z,51.39
2022-10-13T15:12:23.826Z,51.52
2022-10-13T15:14:50.897Z,51.65
2022-10-13T15:17:17.813Z,51.55
2022-10-13T15:19:44.816Z,51.34
2022-10-13T15:22:11.645Z,51.55
2022-10-13T15:24:38.441Z,51.88
2022-10-13T15:27:07.561Z,51.79
2022-10-13T15:29:34.535Z,52.21
2022-10-13T15:32:11.514Z,52.21
2022-10-13T15:34:41.447Z,52.22
2022-10-13T15:37:14.248Z,52.14
2022-10-13T15:39:41.097Z,52.77
2022-10-13T15:42:08.017Z,51.94
2022-10-13T15:44:57.330Z,52.44
2022-10-13T15:47:21.892Z,52.56
2022-10-13T15:49:49.093Z,53.03
2022-10-13T15:52:16.001Z,52.92
2022-10-13T15:54:43.117Z,53.38
2022-10-13T15:57:09.995Z,53.24
2022-10-13T15:59:36.817Z,53.50
2022-10-13T16:02:03.735Z,53.36
2022-10-13T16:04:34.803Z,53.35
2022-10-13T16:07:04.778Z,53.71
2022-10-13T16:09:31.922Z,53.93
2022-10-13T16:11:59.017Z,53.74
2022-10-13T16:14:26.068Z,53.93
2022-10-13T16:16:52.914Z,53.87
2022-10-13T16:19:20.008Z,53.68
2022-10-13T16:21:47.471Z,54.27
2022-10-13T16:24:14.394Z,54.20
2022-10-13T16:26:41.258Z,54.58
2022-10-13T16:29:08.415Z,54.79
2022-10-13T16:31:35.450Z,55.05
2022-10-13T16:34:02.749Z,55.18
2022-10-13T16:36:39.096Z,55.15
2022-10-13T16:39:05.990Z,54.91
2022-10-13T16:41:32.963Z,54.79
2022-10-13T16:44:00.117Z,54.73
2022-10-13T16:46:28.180Z,54.64
2022-10-13T16:48:55.355Z,54.61
2022-10-13T16:51:24.867Z,54.28
2022-10-13T16:53:54.114Z,55.10
2022-10-13T16:56:22.443Z,55.35
2022-10-13T16:58:51.396Z,55.17
2022-10-13T17:01:18.445Z,54.96
2022-10-13T17:03:46.440Z,54.65
2022-10-13T17:06:14.641Z,54.50
2022-10-13T17:08:42.538Z,54.56
2022-10-13T17:11:15.440Z,54.59
2022-10-13T17:13:42.873Z,54.53
2022-10-13T17:16:12.657Z,54.79
2022-10-13T17:18:39.937Z,54.33
2022-10-13T17:21:10.060Z,54.99
2022-10-13T17:23:37.918Z,55.34
2022-10-13T17:26:11.114Z,55.20
2022-10-13T17:28:39.228Z,55.81
2022-10-13T17:31:12.027Z,55.89
2022-10-13T17:33:40.377Z,55.98
2022-10-13T17:36:19.228Z,56.25
2022-10-13T17:38:46.899Z,56.48
2022-10-13T17:41:14.464Z,56.82
2022-10-13T17:43:42.312Z,57.19
2022-10-13T17:46:42.599Z,57.45
2022-10-13T17:49:12.201Z,56.85
2022-10-13T17:51:40.728Z,57.03
2022-10-13T17:54:11.592Z,56.94
2022-10-13T17:56:42.177Z,57.34
2022-10-13T17:59:09.086Z,57.63
2022-10-13T18:01:36.307Z,57.95
2022-10-13T18:04:06.656Z,58.05
2022-10-13T18:06:38.632Z,57.96
2022-10-13T18:09:18.393Z,58.20
2022-10-13T18:11:50.721Z,58.73
2022-10-13T18:14:20.270Z,58.98
2022-10-13T18:16:47.589Z,59.38
2022-10-13T18:19:15.164Z,59.56
2022-10-13T18:21:42.292Z,59.66
2022-10-13T18:24:10.658Z,59.46
2022-10-13T18:26:37.758Z,59.27
2022-10-13T18:29:07.329Z,59.51
2022-10-13T18:31:37.059Z,60.13
2022-10-13T18:34:08.197Z,60.23
2022-10-13T18:36:38.359Z,60.44
2022-10-13T18:39:14.293Z,61.19
2022-10-13T18:41:42.258Z,61.34
2022-10-13T18:44:10.039Z,61.38
2022-10-13T18:46:38.923Z,61.34
2022-10-13T18:49:07.933Z,60.98
2022-10-13T18:51:36.424Z,61.44
2022-10-13T18:54:05.090Z,60.88
2022-10-13T18:56:33.180Z,60.66
2022-10-13T18:59:02.376Z,60.15
2022-10-13T19:01:32.258Z,60.94
2022-10-13T19:03:59.758Z,60.56
2022-10-13T19:06:28.580Z,60.91
2022-10-13T19:09:01.133Z,60.95
2022-10-13T19:11:29.336Z,61.22
2022-10-13T19:13:57.765Z,61.23
2022-10-13T19:16:27.047Z,60.75
2022-10-13T19:18:54.093Z,60.96
2022-10-13T19:21:22.477Z,61.36
2022-10-13T19:23:49.970Z,61.44
2022-10-13T19:26:19.921Z,61.51
2022-10-13T19:28:47.392Z,62.01
2022-10-13T19:31:17.917Z,63.11
2022-10-13T19:33:45.715Z,63.29
2022-10-13T19:36:24.004Z,63.45
2022-10-13T19:38:51.396Z,63.31
2022-10-13T19:41:18.497Z,63.66
2022-10-13T19:43:45.436Z,64.04
2022-10-13T19:46:12.468Z,64.61
2022-10-13T19:48:39.334Z,64.65
2022-10-13T19:51:08.440Z,64.93
2022-10-13T19:53:36.133Z,64.58
2022-10-13T19:56:03.006Z,64.69
2022-10-13T19:58:30.326Z,65.17
2022-10-13T20:01:02.710Z,65.62
2022-10-13T20:03:29.698Z,65.77
2022-10-13T20:06:09.923Z,65.75
2022-10-13T20:08:42.816Z,65.53
2022-10-13T20:11:12.634Z,65.77
2022-10-13T20:13:39.729Z,65.88
2022-10-13T20:16:08.964Z,65.99
2022-10-13T20:18:39.275Z,65.76
2022-10-13T20:21:09.317Z,66.25
2022-10-13T20:23:36.835Z,66.03
2022-10-13T20:26:09.993Z,66.06
2022-10-13T20:28:42.885Z,66.23
2022-10-13T20:31:11.639Z,66.02
2022-10-13T20:33:39.035Z,65.85
2022-10-13T20:36:08.609Z,65.59
2022-10-13T20:38:36.393Z,65.76
2022-10-13T20:41:05.294Z,65.64
2022-10-13T20:43:32.580Z,66.27
2022-10-13T20:46:05.201Z,66.01
2022-10-13T20:48:45.572Z,65.87
2022-10-13T20:51:24.148Z,65.73
2022-10-13T20:53:51.175Z,65.53
2022-10-13T20:56:21.551Z,65.74
2022-10-13T20:58:49.375Z,65.81
2022-10-13T21:01:17.553Z,65.92
2022-10-13T21:03:44.512Z,66.99
2022-10-13T21:06:13.795Z,67.48
2022-10-13T21:08:44.135Z,68.38
2022-10-13T21:11:13.732Z,68.53
2022-10-13T21:13:42.347Z,68.36
2022-10-13T21:16:21.400Z,68.44
2022-10-13T21:18:50.023Z,68.54
2022-10-13T21:21:23.040Z,68.89
2022-10-13T21:23:53.996Z,68.63
2022-10-13T21:26:22.446Z,68.81
2022-10-13T21:28:50.676Z,70.10
2022-10-13T21:31:19.555Z,70.57
2022-10-13T21:33:46.714Z,70.64
2022-10-13T21:36:20.396Z,70.96
2022-10-13T21:38:50.199Z,71.48
2022-10-13T21:41:19.643Z,71.54
2022-10-13T21:43:47.976Z,71.85
2022-10-13T21:46:20.884Z,71.59
2022-10-13T21:48:48.542Z,71.27
2022-10-13T21:51:21.657Z,71.25
2022-10-13T21:53:54.213Z,70.85
2022-10-13T21:56:22.638Z,70.38
2022-10-13T21:58:50.080Z,70.16
2022-10-13T22:01:18.726Z,70.47
2022-10-13T22:03:47.164Z,70.19
2022-10-13T22:06:19.083Z,70.30
2022-10-13T22:08:49.447Z,70.45
2022-10-13T22:11:18.456Z,70.50
2022-10-13T22:13:46.115Z,70.17
2022-10-13T22:16:18.421Z,70.42
2022-10-13T22:18:47.158Z,70.45
2022-10-13T22:21:17.522Z,70.65
2022-10-13T22:23:46.265Z,70.48
2022-10-13T22:26:15.431Z,69.92
2022-10-13T22:28:42.816Z,69.46
2022-10-13T22:31:12.961Z,69.22
2022-10-13T22:33:41.379Z,69.14
2022-10-13T22:36:19.701Z,69.02
2022-10-13T22:38:49.240Z,69.59
2022-10-13T22:41:18.165Z,69.84
2022-10-13T22:43:49.482Z,69.66
2022-10-13T22:46:18.806Z,69.64
2022-10-13T22:48:46.217Z,69.77
2022-10-13T22:51:16.611Z,69.94
2022-10-13T22:53:44.252Z,69.62
2022-10-13T22:56:17.535Z,69.82
2022-10-13T22:58:48.538Z,70.13
2022-10-13T23:01:16.395Z,70.29
2022-10-13T23:03:46.501Z,69.52
2022-10-13T23:06:15.648Z,70.58
2022-10-13T23:08:42.870Z,71.07
2022-10-13T23:11:10.366Z,70.67
2022-10-13T23:13:37.612Z,70.34
2022-10-13T23:16:11.963Z,70.64
2022-10-13T23:18:39.638Z,71.00
2022-10-13T23:21:13.126Z,70.70
2022-10-13T23:23:40.457Z,70.79
2022-10-13T23:26:13.843Z,71.04
2022-10-13T23:28:41.083Z,71.87
2022-10-13T23:31:14.965Z,72.06
2022-10-13T23:33:42.076Z,72.14
2022-10-13T23:36:11.366Z,72.48
2022-10-13T23:38:38.679Z,72.22
2022-10-13T23:41:10.978Z,71.71
2022-10-13T23:43:38.237Z,71.68
2022-10-13T23:46:05.950Z,71.51
2022-10-13T23:48:33.241Z,71.05
2022-10-13T23:51:10.478Z,70.78
2022-10-13T23:53:38.398Z,70.70
2022-10-13T23:56:06.951Z,70.33
2022-10-13T23:58:36.756Z,71.13
